sensor_id;sensor_type;location;lat;lon;timestamp;temperature;humidity
51739;DHT22;37815;52.692;6.226;2024-02-23T00:04:52;10.50;99.90
51739;DHT22;37815;52.692;6.226;2024-02-23T00:09:53;10.40;99.90
51739;DHT22;37815;52.692;6.226;2024-02-23T00:14:53;10.40;99.90
51739;DHT22;37815;52.692;6.226;2024-02-23T00:19:54;10.40;99.90
51739;DHT22;37815;52.692;6.226;2024-02-23T00:24:54;10.40;99.90
51739;DHT22;37815;52.692;6.226;2024-02-23T00:29:55;10.30;99.90
51739;DHT22;37815;52.692;6.226;2024-02-23T00:34:57;10.30;99.90
51739;DHT22;37815;52.692;6.226;2024-02-23T00:39:57;10.30;99.90
51739;DHT22;37815;52.692;6.226;2024-02-23T00:44:58;10.30;99.90
51739;DHT22;37815;52.692;6.226;2024-02-23T00:49:59;10.20;99.90
51739;DHT22;37815;52.692;6.226;2024-02-23T00:55:00;10.20;99.90
51739;DHT22;37815;52.692;6.226;2024-02-23T01:00:01;10.20;99.90
51739;DHT22;37815;52.692;6.226;2024-02-23T01:05:04;10.20;99.90
51739;DHT22;37815;52.692;6.226;2024-02-23T01:10:05;10.10;99.90
51739;DHT22;37815;52.692;6.226;2024-02-23T01:15:06;10.10;99.90
51739;DHT22;37815;52.692;6.226;2024-02-23T01:20:07;10.10;99.90
51739;DHT22;37815;52.692;6.226;2024-02-23T01:25:07;10.10;99.90
51739;DHT22;37815;52.692;6.226;2024-02-23T01:30:08;10.10;99.90
51739;DHT22;37815;52.692;6.226;2024-02-23T01:35:09;10.10;99.90
51739;DHT22;37815;52.692;6.226;2024-02-23T01:40:10;10.10;99.90
51739;DHT22;37815;52.692;6.226;2024-02-23T01:45:10;10.00;99.90
51739;DHT22;37815;52.692;6.226;2024-02-23T01:50:11;10.00;99.90
51739;DHT22;37815;52.692;6.226;2024-02-23T01:55:13;10.00;99.90
51739;DHT22;37815;52.692;6.226;2024-02-23T02:00:18;10.00;99.90
51739;DHT22;37815;52.692;6.226;2024-02-23T02:05:19;10.00;99.90
51739;DHT22;37815;52.692;6.226;2024-02-23T02:10:20;10.00;99.90
51739;DHT22;37815;52.692;6.226;2024-02-23T02:15:21;10.00;99.90
51739;DHT22;37815;52.692;6.226;2024-02-23T02:20:25;10.00;99.90
51739;DHT22;37815;52.692;6.226;2024-02-23T02:25:28;10.00;99.90
51739;DHT22;37815;52.692;6.226;2024-02-23T02:30:29;9.90;99.90
51739;DHT22;37815;52.692;6.226;2024-02-23T02:35:30;9.90;99.90
51739;DHT22;37815;52.692;6.226;2024-02-23T02:40:30;9.90;99.90
51739;DHT22;37815;52.692;6.226;2024-02-23T02:45:32;9.90;99.90
51739;DHT22;37815;52.692;6.226;2024-02-23T02:50:32;9.90;99.90
51739;DHT22;37815;52.692;6.226;2024-02-23T02:55:33;9.90;99.90
51739;DHT22;37815;52.692;6.226;2024-02-23T03:00:34;9.90;99.90
51739;DHT22;37815;52.692;6.226;2024-02-23T03:05:34;9.90;99.90
51739;DHT22;37815;52.692;6.226;2024-02-23T03:10:35;9.90;99.90
51739;DHT22;37815;52.692;6.226;2024-02-23T03:15:35;9.80;99.90
51739;DHT22;37815;52.692;6.226;2024-02-23T03:20:36;9.80;99.90
51739;DHT22;37815;52.692;6.226;2024-02-23T03:25:37;9.80;99.90
51739;DHT22;37815;52.692;6.226;2024-02-23T03:30:37;9.80;99.90
51739;DHT22;37815;52.692;6.226;2024-02-23T03:35:38;9.80;99.90
51739;DHT22;37815;52.692;6.226;2024-02-23T03:40:39;9.80;99.90
51739;DHT22;37815;52.692;6.226;2024-02-23T03:45:39;9.80;99.90
51739;DHT22;37815;52.692;6.226;2024-02-23T03:50:40;9.70;99.90
51739;DHT22;37815;52.692;6.226;2024-02-23T03:55:40;9.70;99.90
51739;DHT22;37815;52.692;6.226;2024-02-23T04:00:43;9.70;99.90
51739;DHT22;37815;52.692;6.226;2024-02-23T04:05:44;9.70;99.90
51739;DHT22;37815;52.692;6.226;2024-02-23T04:10:44;9.70;99.90
51739;DHT22;37815;52.692;6.226;2024-02-23T04:15:45;9.60;99.90
51739;DHT22;37815;52.692;6.226;2024-02-23T04:20:45;9.70;99.90
51739;DHT22;37815;52.692;6.226;2024-02-23T04:25:46;9.60;99.90
51739;DHT22;37815;52.692;6.226;2024-02-23T04:30:47;9.60;99.90
51739;DHT22;37815;52.692;6.226;2024-02-23T04:35:47;9.60;99.90
51739;DHT22;37815;52.692;6.226;2024-02-23T04:40:48;9.60;99.90
51739;DHT22;37815;52.692;6.226;2024-02-23T04:45:48;9.60;99.90
51739;DHT22;37815;52.692;6.226;2024-02-23T04:50:49;9.60;99.90
51739;DHT22;37815;52.692;6.226;2024-02-23T04:55:49;9.60;99.90
51739;DHT22;37815;52.692;6.226;2024-02-23T05:00:50;9.50;99.90
51739;DHT22;37815;52.692;6.226;2024-02-23T05:05:50;9.50;99.90
51739;DHT22;37815;52.692;6.226;2024-02-23T05:10:54;9.50;99.90
51739;DHT22;37815;52.692;6.226;2024-02-23T05:15:55;9.50;99.90
51739;DHT22;37815;52.692;6.226;2024-02-23T05:20:57;9.50;99.90
51739;DHT22;37815;52.692;6.226;2024-02-23T05:25:57;9.50;99.90
51739;DHT22;37815;52.692;6.226;2024-02-23T05:30:58;9.50;99.90
51739;DHT22;37815;52.692;6.226;2024-02-23T05:35:59;9.50;99.90
51739;DHT22;37815;52.692;6.226;2024-02-23T05:40:59;9.40;99.90
51739;DHT22;37815;52.692;6.226;2024-02-23T05:46:00;9.40;99.90
51739;DHT22;37815;52.692;6.226;2024-02-23T05:51:00;9.40;99.90
51739;DHT22;37815;52.692;6.226;2024-02-23T05:56:01;9.40;99.90
51739;DHT22;37815;52.692;6.226;2024-02-23T06:01:02;9.40;99.90
51739;DHT22;37815;52.692;6.226;2024-02-23T06:06:07;9.40;99.90
51739;DHT22;37815;52.692;6.226;2024-02-23T06:11:09;9.40;99.90
51739;DHT22;37815;52.692;6.226;2024-02-23T06:16:10;9.40;99.90
51739;DHT22;37815;52.692;6.226;2024-02-23T06:21:13;9.30;99.90
51739;DHT22;37815;52.692;6.226;2024-02-23T06:26:14;9.30;99.90
51739;DHT22;37815;52.692;6.226;2024-02-23T06:31:15;9.30;99.90
51739;DHT22;37815;52.692;6.226;2024-02-23T06:36:15;9.30;99.90
51739;DHT22;37815;52.692;6.226;2024-02-23T06:41:16;9.40;99.90
51739;DHT22;37815;52.692;6.226;2024-02-23T06:46:19;9.40;99.90
51739;DHT22;37815;52.692;6.226;2024-02-23T06:51:20;9.40;99.90
51739;DHT22;37815;52.692;6.226;2024-02-23T06:56:20;9.40;99.90
51739;DHT22;37815;52.692;6.226;2024-02-23T07:01:21;9.40;99.90
51739;DHT22;37815;52.692;6.226;2024-02-23T07:06:22;9.30;99.90
51739;DHT22;37815;52.692;6.226;2024-02-23T07:11:22;9.40;99.90
51739;DHT22;37815;52.692;6.226;2024-02-23T07:16:23;9.40;99.90
51739;DHT22;37815;52.692;6.226;2024-02-23T07:21:23;9.40;99.90
51739;DHT22;37815;52.692;6.226;2024-02-23T07:26:24;9.40;99.90
51739;DHT22;37815;52.692;6.226;2024-02-23T07:31:24;9.40;99.90
51739;DHT22;37815;52.692;6.226;2024-02-23T07:36:25;9.30;99.90
51739;DHT22;37815;52.692;6.226;2024-02-23T07:41:26;9.30;99.90
51739;DHT22;37815;52.692;6.226;2024-02-23T07:46:26;9.30;99.90
51739;DHT22;37815;52.692;6.226;2024-02-23T07:51:27;9.30;99.90
51739;DHT22;37815;52.692;6.226;2024-02-23T07:56:28;9.30;99.90
51739;DHT22;37815;52.692;6.226;2024-02-23T08:01:29;9.30;99.90
51739;DHT22;37815;52.692;6.226;2024-02-23T08:06:30;9.30;99.90
51739;DHT22;37815;52.692;6.226;2024-02-23T08:11:31;9.30;99.90
51739;DHT22;37815;52.692;6.226;2024-02-23T08:16:32;9.30;99.90
51739;DHT22;37815;52.692;6.226;2024-02-23T08:21:33;9.30;99.90
51739;DHT22;37815;52.692;6.226;2024-02-23T08:26:33;9.30;99.90
51739;DHT22;37815;52.692;6.226;2024-02-23T08:31:34;9.30;99.90
51739;DHT22;37815;52.692;6.226;2024-02-23T08:36:35;9.30;99.90
51739;DHT22;37815;52.692;6.226;2024-02-23T08:41:37;9.30;99.90
51739;DHT22;37815;52.692;6.226;2024-02-23T08:46:39;9.30;99.90
51739;DHT22;37815;52.692;6.226;2024-02-23T08:51:40;9.30;99.90
51739;DHT22;37815;52.692;6.226;2024-02-23T08:56:41;9.30;99.90
51739;DHT22;37815;52.692;6.226;2024-02-23T09:01:42;9.30;99.90
51739;DHT22;37815;52.692;6.226;2024-02-23T09:06:44;9.30;99.90
51739;DHT22;37815;52.692;6.226;2024-02-23T09:11:46;9.40;99.90
51739;DHT22;37815;52.692;6.226;2024-02-23T09:16:46;9.40;99.90
51739;DHT22;37815;52.692;6.226;2024-02-23T09:21:47;9.40;99.90
51739;DHT22;37815;52.692;6.226;2024-02-23T09:26:48;9.40;99.90
51739;DHT22;37815;52.692;6.226;2024-02-23T09:31:49;9.40;99.90
51739;DHT22;37815;52.692;6.226;2024-02-23T09:36:49;10.80;99.90
51739;DHT22;37815;52.692;6.226;2024-02-23T09:41:50;9.40;99.90
51739;DHT22;37815;52.692;6.226;2024-02-23T09:46:51;9.30;99.90
51739;DHT22;37815;52.692;6.226;2024-02-23T09:51:53;9.00;99.90
51739;DHT22;37815;52.692;6.226;2024-02-23T09:56:55;8.70;99.90
51739;DHT22;37815;52.692;6.226;2024-02-23T10:01:55;8.40;99.90
51739;DHT22;37815;52.692;6.226;2024-02-23T10:06:56;8.10;99.90
51739;DHT22;37815;52.692;6.226;2024-02-23T10:11:57;7.90;99.90
51739;DHT22;37815;52.692;6.226;2024-02-23T10:16:57;7.90;99.90
51739;DHT22;37815;52.692;6.226;2024-02-23T10:21:59;8.10;99.90
51739;DHT22;37815;52.692;6.226;2024-02-23T10:27:00;8.20;99.90
51739;DHT22;37815;52.692;6.226;2024-02-23T10:32:02;8.40;99.90
51739;DHT22;37815;52.692;6.226;2024-02-23T10:37:06;8.60;99.90
51739;DHT22;37815;52.692;6.226;2024-02-23T10:42:09;8.80;99.90
51739;DHT22;37815;52.692;6.226;2024-02-23T10:47:11;8.90;99.90
51739;DHT22;37815;52.692;6.226;2024-02-23T10:52:12;8.90;99.90
51739;DHT22;37815;52.692;6.226;2024-02-23T10:57:17;9.00;99.90
51739;DHT22;37815;52.692;6.226;2024-02-23T11:02:19;9.00;99.90
51739;DHT22;37815;52.692;6.226;2024-02-23T11:07:21;9.10;99.90
51739;DHT22;37815;52.692;6.226;2024-02-23T11:12:28;9.10;99.90
51739;DHT22;37815;52.692;6.226;2024-02-23T11:17:31;9.20;99.90
51739;DHT22;37815;52.692;6.226;2024-02-23T11:22:34;9.20;99.90
51739;DHT22;37815;52.692;6.226;2024-02-23T11:27:38;9.20;99.90
51739;DHT22;37815;52.692;6.226;2024-02-23T11:32:46;9.20;99.90
51739;DHT22;37815;52.692;6.226;2024-02-23T11:37:52;9.30;99.90
51739;DHT22;37815;52.692;6.226;2024-02-23T11:42:59;9.20;99.90
51739;DHT22;37815;52.692;6.226;2024-02-23T11:48:00;9.30;99.90
51739;DHT22;37815;52.692;6.226;2024-02-23T11:53:01;9.30;99.90
51739;DHT22;37815;52.692;6.226;2024-02-23T11:58:03;9.30;99.90
51739;DHT22;37815;52.692;6.226;2024-02-23T12:03:06;9.30;99.90
51739;DHT22;37815;52.692;6.226;2024-02-23T12:08:07;9.30;99.90
51739;DHT22;37815;52.692;6.226;2024-02-23T12:13:08;9.40;99.90
51739;DHT22;37815;52.692;6.226;2024-02-23T12:18:10;9.30;99.90
51739;DHT22;37815;52.692;6.226;2024-02-23T12:23:12;9.40;99.90
51739;DHT22;37815;52.692;6.226;2024-02-23T12:28:18;9.30;99.90
51739;DHT22;37815;52.692;6.226;2024-02-23T12:33:20;9.40;99.90
51739;DHT22;37815;52.692;6.226;2024-02-23T12:38:20;9.40;99.90
51739;DHT22;37815;52.692;6.226;2024-02-23T12:43:21;9.40;99.90
51739;DHT22;37815;52.692;6.226;2024-02-23T12:48:24;9.40;99.90
51739;DHT22;37815;52.692;6.226;2024-02-23T12:53:33;9.40;99.90
51739;DHT22;37815;52.692;6.226;2024-02-23T12:58:35;9.50;99.90
51739;DHT22;37815;52.692;6.226;2024-02-23T13:03:38;9.50;99.90
51739;DHT22;37815;52.692;6.226;2024-02-23T13:08:41;9.50;99.90
51739;DHT22;37815;52.692;6.226;2024-02-23T13:13:42;9.50;99.90
51739;DHT22;37815;52.692;6.226;2024-02-23T13:18:43;9.60;99.90
51739;DHT22;37815;52.692;6.226;2024-02-23T13:23:44;9.60;99.90
51739;DHT22;37815;52.692;6.226;2024-02-23T13:28:44;9.60;99.90
51739;DHT22;37815;52.692;6.226;2024-02-23T13:33:45;9.50;99.90
51739;DHT22;37815;52.692;6.226;2024-02-23T13:38:46;9.60;99.90
51739;DHT22;37815;52.692;6.226;2024-02-23T13:43:46;9.60;99.90
51739;DHT22;37815;52.692;6.226;2024-02-23T13:49:07;9.60;99.90
51739;DHT22;37815;52.692;6.226;2024-02-23T13:54:10;9.60;99.90
51739;DHT22;37815;52.692;6.226;2024-02-23T13:59:11;9.50;99.90
51739;DHT22;37815;52.692;6.226;2024-02-23T14:04:12;9.50;99.90
51739;DHT22;37815;52.692;6.226;2024-02-23T14:09:15;9.60;99.90
51739;DHT22;37815;52.692;6.226;2024-02-23T14:14:15;9.60;99.90
51739;DHT22;37815;52.692;6.226;2024-02-23T14:19:19;9.60;99.90
51739;DHT22;37815;52.692;6.226;2024-02-23T14:24:20;9.60;99.90
51739;DHT22;37815;52.692;6.226;2024-02-23T14:29:21;9.60;99.90
51739;DHT22;37815;52.692;6.226;2024-02-23T14:34:21;9.60;99.90
51739;DHT22;37815;52.692;6.226;2024-02-23T14:39:24;9.60;99.90
51739;DHT22;37815;52.692;6.226;2024-02-23T14:44:24;9.60;99.90
51739;DHT22;37815;52.692;6.226;2024-02-23T14:49:33;9.60;99.90
51739;DHT22;37815;52.692;6.226;2024-02-23T14:54:34;9.60;99.90
51739;DHT22;37815;52.692;6.226;2024-02-23T14:59:34;9.60;99.90
51739;DHT22;37815;52.692;6.226;2024-02-23T15:04:36;9.80;99.90
51739;DHT22;37815;52.692;6.226;2024-02-23T15:09:37;9.70;99.90
51739;DHT22;37815;52.692;6.226;2024-02-23T15:14:37;9.70;99.90
51739;DHT22;37815;52.692;6.226;2024-02-23T15:19:38;9.70;99.90
51739;DHT22;37815;52.692;6.226;2024-02-23T15:24:38;9.60;99.90
51739;DHT22;37815;52.692;6.226;2024-02-23T15:29:39;9.60;99.90
51739;DHT22;37815;52.692;6.226;2024-02-23T15:34:39;9.70;99.90
51739;DHT22;37815;52.692;6.226;2024-02-23T15:39:41;9.70;99.90
51739;DHT22;37815;52.692;6.226;2024-02-23T15:44:41;9.70;99.90
51739;DHT22;37815;52.692;6.226;2024-02-23T15:49:42;9.70;99.90
51739;DHT22;37815;52.692;6.226;2024-02-23T15:54:42;9.70;99.90
51739;DHT22;37815;52.692;6.226;2024-02-23T15:59:44;9.70;99.90
51739;DHT22;37815;52.692;6.226;2024-02-23T16:04:46;9.70;99.90
51739;DHT22;37815;52.692;6.226;2024-02-23T16:09:46;9.70;99.90
51739;DHT22;37815;52.692;6.226;2024-02-23T16:14:47;9.70;99.90
51739;DHT22;37815;52.692;6.226;2024-02-23T16:19:47;9.70;99.90
51739;DHT22;37815;52.692;6.226;2024-02-23T16:24:48;9.70;99.90
51739;DHT22;37815;52.692;6.226;2024-02-23T16:29:49;9.70;99.90
51739;DHT22;37815;52.692;6.226;2024-02-23T16:34:49;9.70;99.90
51739;DHT22;37815;52.692;6.226;2024-02-23T16:39:50;9.70;99.90
51739;DHT22;37815;52.692;6.226;2024-02-23T16:44:51;9.70;99.90
51739;DHT22;37815;52.692;6.226;2024-02-23T16:49:51;9.80;99.90
51739;DHT22;37815;52.692;6.226;2024-02-23T16:54:52;9.70;99.90
51739;DHT22;37815;52.692;6.226;2024-02-23T16:59:52;9.70;99.90
51739;DHT22;37815;52.692;6.226;2024-02-23T17:04:53;9.70;99.90
51739;DHT22;37815;52.692;6.226;2024-02-23T17:09:55;9.70;99.90
51739;DHT22;37815;52.692;6.226;2024-02-23T17:14:56;9.60;99.90
51739;DHT22;37815;52.692;6.226;2024-02-23T17:19:58;9.60;99.90
51739;DHT22;37815;52.692;6.226;2024-02-23T17:24:59;9.60;99.90
51739;DHT22;37815;52.692;6.226;2024-02-23T17:30:00;9.60;99.90
51739;DHT22;37815;52.692;6.226;2024-02-23T17:35:01;9.60;99.90
51739;DHT22;37815;52.692;6.226;2024-02-23T17:40:02;9.60;99.90
51739;DHT22;37815;52.692;6.226;2024-02-23T17:45:03;9.60;99.90
51739;DHT22;37815;52.692;6.226;2024-02-23T17:50:04;9.80;99.90
51739;DHT22;37815;52.692;6.226;2024-02-23T17:55:05;9.80;99.90
51739;DHT22;37815;52.692;6.226;2024-02-23T18:00:06;9.80;99.90
51739;DHT22;37815;52.692;6.226;2024-02-23T18:05:07;9.80;99.90
51739;DHT22;37815;52.692;6.226;2024-02-23T18:10:08;9.70;99.90
51739;DHT22;37815;52.692;6.226;2024-02-23T18:15:08;9.70;99.90
51739;DHT22;37815;52.692;6.226;2024-02-23T18:20:11;9.60;99.90
51739;DHT22;37815;52.692;6.226;2024-02-23T18:25:11;9.60;99.90
51739;DHT22;37815;52.692;6.226;2024-02-23T18:30:12;9.70;99.90
51739;DHT22;37815;52.692;6.226;2024-02-23T18:35:13;9.80;99.90
51739;DHT22;37815;52.692;6.226;2024-02-23T18:40:14;9.80;99.90
51739;DHT22;37815;52.692;6.226;2024-02-23T18:45:14;9.80;99.90
51739;DHT22;37815;52.692;6.226;2024-02-23T18:50:18;9.70;99.90
51739;DHT22;37815;52.692;6.226;2024-02-23T18:55:19;9.70;99.90
51739;DHT22;37815;52.692;6.226;2024-02-23T19:00:21;9.60;99.90
51739;DHT22;37815;52.692;6.226;2024-02-23T19:05:22;9.60;99.90
51739;DHT22;37815;52.692;6.226;2024-02-23T19:10:23;9.60;99.90
51739;DHT22;37815;52.692;6.226;2024-02-23T19:15:23;9.60;99.90
51739;DHT22;37815;52.692;6.226;2024-02-23T19:20:25;9.50;99.90
51739;DHT22;37815;52.692;6.226;2024-02-23T19:25:25;9.50;99.90
51739;DHT22;37815;52.692;6.226;2024-02-23T19:30:27;9.50;99.90
51739;DHT22;37815;52.692;6.226;2024-02-23T19:35:29;9.50;99.90
51739;DHT22;37815;52.692;6.226;2024-02-23T19:40:30;9.50;99.90
51739;DHT22;37815;52.692;6.226;2024-02-23T19:45:30;9.50;99.90
51739;DHT22;37815;52.692;6.226;2024-02-23T19:50:31;9.50;99.90
51739;DHT22;37815;52.692;6.226;2024-02-23T19:55:31;9.40;99.90
51739;DHT22;37815;52.692;6.226;2024-02-23T20:00:32;9.40;99.90
51739;DHT22;37815;52.692;6.226;2024-02-23T20:05:32;9.40;99.90
51739;DHT22;37815;52.692;6.226;2024-02-23T20:10:33;9.40;99.90
51739;DHT22;37815;52.692;6.226;2024-02-23T20:15:35;9.40;99.90
51739;DHT22;37815;52.692;6.226;2024-02-23T20:20:35;9.40;99.90
51739;DHT22;37815;52.692;6.226;2024-02-23T20:25:41;9.40;99.90
51739;DHT22;37815;52.692;6.226;2024-02-23T20:30:41;9.50;99.90
51739;DHT22;37815;52.692;6.226;2024-02-23T20:35:43;9.40;99.90
51739;DHT22;37815;52.692;6.226;2024-02-23T20:40:43;9.70;99.90
51739;DHT22;37815;52.692;6.226;2024-02-23T20:45:46;9.40;99.90
51739;DHT22;37815;52.692;6.226;2024-02-23T20:50:47;9.40;99.90
51739;DHT22;37815;52.692;6.226;2024-02-23T20:55:47;9.40;99.90
51739;DHT22;37815;52.692;6.226;2024-02-23T21:00:48;9.40;99.90
51739;DHT22;37815;52.692;6.226;2024-02-23T21:05:49;9.40;99.90
51739;DHT22;37815;52.692;6.226;2024-02-23T21:10:49;9.40;99.90
51739;DHT22;37815;52.692;6.226;2024-02-23T21:15:50;9.40;99.90
51739;DHT22;37815;52.692;6.226;2024-02-23T21:20:50;9.30;99.90
51739;DHT22;37815;52.692;6.226;2024-02-23T21:25:51;9.30;99.90
51739;DHT22;37815;52.692;6.226;2024-02-23T21:30:51;9.30;99.90
51739;DHT22;37815;52.692;6.226;2024-02-23T21:35:55;9.30;99.90
51739;DHT22;37815;52.692;6.226;2024-02-23T21:40:56;9.40;99.90
51739;DHT22;37815;52.692;6.226;2024-02-23T21:45:58;9.30;99.90
51739;DHT22;37815;52.692;6.226;2024-02-23T21:50:59;9.30;99.90
51739;DHT22;37815;52.692;6.226;2024-02-23T21:55:59;9.30;99.90
51739;DHT22;37815;52.692;6.226;2024-02-23T22:01:01;9.30;99.90
51739;DHT22;37815;52.692;6.226;2024-02-23T22:06:02;9.30;99.90
51739;DHT22;37815;52.692;6.226;2024-02-23T22:11:03;9.30;99.90
51739;DHT22;37815;52.692;6.226;2024-02-23T22:16:04;9.30;99.90
51739;DHT22;37815;52.692;6.226;2024-02-23T22:21:04;9.30;99.90
51739;DHT22;37815;52.692;6.226;2024-02-23T22:26:05;9.30;99.90
51739;DHT22;37815;52.692;6.226;2024-02-23T22:31:06;9.20;99.90
51739;DHT22;37815;52.692;6.226;2024-02-23T22:36:06;9.20;99.90
51739;DHT22;37815;52.692;6.226;2024-02-23T22:41:07;8.90;99.90
51739;DHT22;37815;52.692;6.226;2024-02-23T22:46:07;9.30;99.90
51739;DHT22;37815;52.692;6.226;2024-02-23T22:51:08;9.30;99.90
51739;DHT22;37815;52.692;6.226;2024-02-23T22:56:08;9.30;99.90
51739;DHT22;37815;52.692;6.226;2024-02-23T23:01:09;9.20;99.90
51739;DHT22;37815;52.692;6.226;2024-02-23T23:06:10;9.20;99.90
51739;DHT22;37815;52.692;6.226;2024-02-23T23:11:13;9.20;99.90
51739;DHT22;37815;52.692;6.226;2024-02-23T23:16:14;9.20;99.90
51739;DHT22;37815;52.692;6.226;2024-02-23T23:21:14;9.40;99.90
51739;DHT22;37815;52.692;6.226;2024-02-23T23:26:15;9.20;99.90
51739;DHT22;37815;52.692;6.226;2024-02-23T23:31:18;9.20;99.90
51739;DHT22;37815;52.692;6.226;2024-02-23T23:36:19;9.20;99.90
51739;DHT22;37815;52.692;6.226;2024-02-23T23:41:19;9.20;99.90
51739;DHT22;37815;52.692;6.226;2024-02-23T23:46:20;9.10;99.90
51739;DHT22;37815;52.692;6.226;2024-02-23T23:51:20;9.10;99.90
51739;DHT22;37815;52.692;6.226;2024-02-23T23:56:24;9.10;99.90
